Time;durP1;ratioP1;P1;durP2;ratioP2;P2;SDS_P1;SDS_P2;PMS_P1;PMS_P2;Temp;Humidity;BMP_temperature;BMP_pressure;BME280_temperature;BME280_humidity;BME280_pressure;Samples;Min_cycle;Max_cycle;Signal;HPM_P1;HPM_P2
2021/04/16 00:00:46;;;;;;;7.47;3.30;;;5.60;62.40;;;;;;4905787;29;20445;-79
2021/04/16 00:03:12;;;;;;;6.32;3.08;;;5.50;62.50;;;;;;4899385;29;20032;-79
2021/04/16 00:05:39;;;;;;;5.28;3.20;;;5.50;62.70;;;;;;4881990;29;20096;-79
2021/04/16 00:08:07;;;;;;;10.40;3.60;;;5.50;62.80;;;;;;4900532;29;20036;-79
2021/04/16 00:10:40;;;;;;;4.63;2.50;;;5.50;62.80;;;;;;4904445;29;20060;-79
2021/04/16 00:13:06;;;;;;;4.10;2.92;;;5.50;62.80;;;;;;4903449;29;20028;-79
2021/04/16 00:15:35;;;;;;;4.63;3.10;;;5.40;62.90;;;;;;4897787;29;20029;-79
2021/04/16 00:18:03;;;;;;;4.10;2.78;;;5.40;62.90;;;;;;4898905;29;20112;-79
2021/04/16 00:20:29;;;;;;;5.55;2.88;;;5.40;63.00;;;;;;4897373;29;20040;-79
2021/04/16 00:22:56;;;;;;;4.55;2.92;;;5.40;62.90;;;;;;4896918;29;20036;-79
2021/04/16 00:25:25;;;;;;;4.90;3.00;;;5.40;63.50;;;;;;4878513;29;20029;-79
2021/04/16 00:27:51;;;;;;;;;;;5.40;62.80;;;;;;4878869;29;20029;-79
2021/04/16 00:30:21;;;;;;;5.72;3.00;;;5.40;62.80;;;;;;4898038;29;19986;-79
2021/04/16 00:32:46;;;;;;;6.05;3.10;;;5.30;63.00;;;;;;4881948;29;20035;-79
2021/04/16 00:35:12;;;;;;;4.32;2.95;;;5.30;63.00;;;;;;4896917;29;20029;-79
2021/04/16 00:37:38;;;;;;;5.80;3.25;;;5.30;63.00;;;;;;4898501;29;20551;-79
2021/04/16 00:40:06;;;;;;;4.20;2.70;;;5.30;63.10;;;;;;4881405;29;20035;-79
2021/04/16 00:42:32;;;;;;;3.03;2.72;;;5.30;63.10;;;;;;4896816;29;20021;-78
2021/04/16 00:44:58;;;;;;;5.90;2.95;;;5.30;63.20;;;;;;4898191;29;20092;-79
2021/04/16 00:47:24;;;;;;;4.82;3.05;;;5.30;63.20;;;;;;4897149;29;20055;-79
2021/04/16 00:49:54;;;;;;;6.07;2.70;;;5.20;63.30;;;;;;4897363;29;20587;-79
2021/04/16 00:52:32;;;;;;;4.35;3.10;;;5.20;63.60;;;;;;4901565;29;20037;-79
2021/04/16 00:54:59;;;;;;;3.60;2.90;;;5.10;63.80;;;;;;4897888;29;20060;-79
2021/04/16 00:57:24;;;;;;;4.70;2.83;;;5.10;63.90;;;;;;4898209;29;20032;-79
2021/04/16 00:59:54;;;;;;;3.28;2.85;;;5.00;64.00;;;;;;4898029;29;20032;-79
2021/04/16 01:02:20;;;;;;;3.90;2.92;;;5.00;64.20;;;;;;4897944;29;20038;-79
2021/04/16 01:04:46;;;;;;;5.72;3.45;;;5.00;64.40;;;;;;4896913;29;20032;-79
2021/04/16 01:07:13;;;;;;;5.93;2.50;;;4.90;64.40;;;;;;4897753;29;20655;-79
2021/04/16 01:09:38;;;;;;;4.97;3.55;;;4.90;65.10;;;;;;4903911;29;20028;-79
2021/04/16 01:12:08;;;;;;;4.38;3.05;;;4.90;64.30;;;;;;4881197;29;20036;-79
2021/04/16 01:14:35;;;;;;;4.65;3.33;;;4.90;64.40;;;;;;4899436;29;20107;-79
2021/04/16 01:17:02;;;;;;;3.92;3.13;;;4.90;64.50;;;;;;4896387;29;20055;-79
2021/04/16 01:19:43;;;;;;;5.15;3.15;;;4.80;64.60;;;;;;4897872;29;20044;-79
2021/04/16 01:22:14;;;;;;;4.97;3.40;;;4.80;64.90;;;;;;4912479;29;20032;-79
2021/04/16 01:24:40;;;;;;;3.97;2.78;;;4.80;65.00;;;;;;4917784;29;20067;-79
2021/04/16 01:27:14;;;;;;;4.45;2.95;;;4.70;64.90;;;;;;4903198;29;20517;-79
2021/04/16 01:29:46;;;;;;;3.42;2.92;;;4.70;65.00;;;;;;4903042;29;20024;-79
2021/04/16 01:32:28;;;;;;;4.07;3.13;;;4.70;65.10;;;;;;4906752;29;20035;-79
2021/04/16 01:34:53;;;;;;;3.75;2.95;;;4.70;65.30;;;;;;4901431;29;20032;-78
2021/04/16 01:37:19;;;;;;;6.82;3.00;;;4.70;65.30;;;;;;4901357;29;20049;-79
2021/04/16 01:39:45;;;;;;;4.40;3.17;;;4.60;65.40;;;;;;4916338;29;20032;-79
2021/04/16 01:42:11;;;;;;;6.43;3.92;;;4.60;65.50;;;;;;4920100;29;20124;-79
2021/04/16 01:44:37;;;;;;;5.35;3.80;;;4.60;65.60;;;;;;4909184;29;20474;-79
2021/04/16 01:47:06;;;;;;;4.35;3.38;;;4.50;65.70;;;;;;4899333;29;20037;-79
2021/04/16 01:49:38;;;;;;;5.05;3.58;;;4.50;65.90;;;;;;4900110;29;20048;-79
2021/04/16 01:52:06;;;;;;;4.35;3.10;;;4.50;66.00;;;;;;4904104;29;20032;-79
2021/04/16 01:54:35;;;;;;;4.82;3.78;;;4.50;66.00;;;;;;4920012;29;20536;-79
2021/04/16 01:57:08;;;;;;;5.38;3.40;;;4.40;66.20;;;;;;4906173;29;20124;-79
2021/04/16 01:59:36;;;;;;;6.35;3.80;;;4.50;66.30;;;;;;4902515;29;20498;-79
2021/04/16 02:02:04;;;;;;;4.70;3.63;;;4.50;66.30;;;;;;4899789;29;20032;-79
2021/04/16 02:04:30;;;;;;;5.35;3.10;;;4.40;66.30;;;;;;4900971;29;20064;-79
2021/04/16 02:06:55;;;;;;;4.00;3.30;;;4.40;66.30;;;;;;4900011;29;20577;-79
2021/04/16 02:09:27;;;;;;;5.32;3.58;;;4.40;66.50;;;;;;4906968;29;20032;-79
2021/04/16 02:11:53;;;;;;;5.22;3.30;;;4.40;66.70;;;;;;4910589;29;20056;-79
2021/04/16 02:14:22;;;;;;;5.30;3.63;;;4.30;66.60;;;;;;4910577;29;20035;-79
2021/04/16 02:16:49;;;;;;;;;;;4.40;66.80;;;;;;4918072;29;20036;-79
2021/04/16 02:19:15;;;;;;;6.57;4.03;;;4.30;66.70;;;;;;4904268;29;19997;-79
2021/04/16 02:21:41;;;;;;;6.60;3.88;;;4.20;66.80;;;;;;4910839;29;20108;-79
2021/04/16 02:24:08;;;;;;;6.30;3.70;;;4.20;66.90;;;;;;4901486;29;20040;-79
2021/04/16 02:26:34;;;;;;;6.00;3.75;;;4.20;67.00;;;;;;4900604;29;20037;-79
2021/04/16 02:29:00;;;;;;;4.65;3.70;;;4.20;67.10;;;;;;4913657;29;20052;-79
2021/04/16 02:31:26;;;;;;;4.80;3.45;;;4.20;67.10;;;;;;4898916;29;20076;-79
2021/04/16 02:33:52;;;;;;;6.72;3.88;;;4.20;67.20;;;;;;4914740;29;20043;-79
2021/04/16 02:36:18;;;;;;;6.13;4.30;;;4.20;67.30;;;;;;4883173;29;20047;-79
2021/04/16 02:38:44;;;;;;;8.00;4.53;;;4.20;67.40;;;;;;4904652;29;20043;-79
2021/04/16 02:41:09;;;;;;;7.40;5.13;;;4.20;67.40;;;;;;4910544;29;20040;-79
2021/04/16 02:43:35;;;;;;;8.38;5.40;;;4.30;67.40;;;;;;4911887;29;20497;-79
2021/04/16 02:46:01;;;;;;;8.40;5.00;;;4.30;67.50;;;;;;4899577;29;20109;-79
2021/04/16 02:48:27;;;;;;;7.05;4.45;;;4.30;67.60;;;;;;4902186;29;20024;-79
2021/04/16 02:50:53;;;;;;;6.70;4.88;;;4.30;67.70;;;;;;4899953;29;20164;-79
2021/04/16 02:53:19;;;;;;;5.97;4.30;;;4.30;67.80;;;;;;4904591;29;20036;-79
2021/04/16 02:55:45;;;;;;;6.00;4.75;;;4.30;67.80;;;;;;4904068;29;20055;-79
2021/04/16 02:58:11;;;;;;;7.90;4.47;;;4.30;67.80;;;;;;4910868;29;20054;-79
2021/04/16 03:00:37;;;;;;;7.45;4.05;;;4.30;67.80;;;;;;4899477;29;20043;-79
2021/04/16 03:03:03;;;;;;;7.85;4.57;;;4.30;67.90;;;;;;4901185;29;20554;-79
2021/04/16 03:05:29;;;;;;;4.82;4.10;;;4.30;68.10;;;;;;4898664;29;20051;-79
2021/04/16 03:07:55;;;;;;;7.63;4.97;;;4.30;68.00;;;;;;4900983;29;20028;-79
2021/04/16 03:10:28;;;;;;;8.90;4.85;;;4.30;68.00;;;;;;4901941;29;20033;-79
2021/04/16 03:12:54;;;;;;;10.20;5.47;;;4.20;68.10;;;;;;4898396;29;20021;-79
2021/04/16 03:15:20;;;;;;;6.10;4.40;;;4.20;68.20;;;;;;4905866;29;20099;-79
2021/04/16 03:17:46;;;;;;;6.38;4.93;;;4.20;68.30;;;;;;4901910;29;20538;-79
2021/04/16 03:20:13;;;;;;;5.82;4.60;;;4.10;68.40;;;;;;4889711;29;20024;-79
2021/04/16 03:22:38;;;;;;;12.13;4.97;;;4.10;68.60;;;;;;4903549;29;20031;-79
2021/04/16 03:25:06;;;;;;;10.73;5.05;;;4.10;68.80;;;;;;4898216;29;20029;-79
2021/04/16 03:27:32;;;;;;;5.72;4.50;;;4.10;68.80;;;;;;4911624;29;20350;-79
2021/04/16 03:29:57;;;;;;;9.25;5.05;;;4.10;69.00;;;;;;4906545;29;20501;-79
2021/04/16 03:32:23;;;;;;;6.82;5.00;;;4.00;69.10;;;;;;4898707;29;20101;-79
2021/04/16 03:34:49;;;;;;;5.40;4.00;;;4.00;69.20;;;;;;4901368;29;20056;-79
2021/04/16 03:37:15;;;;;;;5.45;4.18;;;4.00;69.40;;;;;;4879127;29;20033;-79
2021/04/16 03:39:40;;;;;;;6.43;4.50;;;4.10;69.40;;;;;;4899771;29;20474;-79
2021/04/16 03:42:06;;;;;;;5.60;4.15;;;4.10;69.40;;;;;;4898109;29;20038;-79
2021/04/16 03:44:32;;;;;;;6.05;4.32;;;4.20;69.30;;;;;;4902112;29;20041;-79
2021/04/16 03:46:58;;;;;;;6.50;3.90;;;4.20;69.30;;;;;;4897509;29;20055;-79
2021/04/16 03:49:24;;;;;;;5.88;4.10;;;4.20;69.40;;;;;;4903115;29;20498;-79
2021/04/16 03:51:55;;;;;;;4.93;3.75;;;4.20;69.40;;;;;;4898077;29;20478;-79
2021/04/16 03:54:22;;;;;;;5.93;4.30;;;4.20;69.40;;;;;;4898592;29;20496;-79
2021/04/16 03:56:48;;;;;;;7.07;4.35;;;4.20;69.50;;;;;;4918082;29;20079;-79
2021/04/16 03:59:15;;;;;;;12.98;4.70;;;4.20;69.70;;;;;;4917810;29;20107;-79
2021/04/16 04:01:40;;;;;;;7.50;4.20;;;4.20;69.80;;;;;;4914054;29;20422;-79
2021/04/16 04:04:06;;;;;;;8.23;4.13;;;4.20;69.80;;;;;;4897368;29;20048;-79
2021/04/16 04:06:32;;;;;;;9.15;4.38;;;4.20;69.90;;;;;;4898592;29;20189;-79
2021/04/16 04:08:58;;;;;;;6.60;4.47;;;4.20;69.90;;;;;;4897087;29;20578;-79
2021/04/16 04:11:23;;;;;;;9.30;3.90;;;4.20;70.00;;;;;;4898648;29;20029;-79
2021/04/16 04:13:49;;;;;;;6.85;4.05;;;4.20;70.10;;;;;;4902510;29;20060;-79
2021/04/16 04:16:15;;;;;;;6.43;4.35;;;4.20;70.20;;;;;;4898122;29;20364;-79
2021/04/16 04:18:40;;;;;;;6.65;4.13;;;4.20;70.30;;;;;;4901861;29;20047;-80
2021/04/16 04:21:09;;;;;;;6.47;3.97;;;4.20;70.30;;;;;;4891198;29;20028;-79
2021/04/16 04:23:34;;;;;;;5.70;4.32;;;4.20;70.40;;;;;;4909407;29;20048;-79
2021/04/16 04:26:00;;;;;;;9.98;4.50;;;4.20;70.70;;;;;;4903805;29;20036;-79
2021/04/16 04:28:27;;;;;;;4.72;3.83;;;4.20;70.80;;;;;;4896979;29;20056;-79
2021/04/16 04:30:52;;;;;;;6.18;4.25;;;4.20;71.40;;;;;;4897296;29;20032;-79
2021/04/16 04:33:18;;;;;;;7.00;4.60;;;4.10;71.60;;;;;;4881451;29;20037;-78
2021/04/16 04:35:44;;;;;;;5.63;4.07;;;4.10;71.00;;;;;;4897120;29;20371;-79
2021/04/16 04:38:09;;;;;;;7.13;4.15;;;4.10;71.10;;;;;;4881865;29;20037;-79
2021/04/16 04:40:36;;;;;;;7.45;4.57;;;4.10;71.40;;;;;;4897185;29;20067;-79
2021/04/16 04:43:02;;;;;;;8.27;4.38;;;4.10;71.40;;;;;;4898282;29;20033;-79
2021/04/16 04:45:28;;;;;;;6.40;4.75;;;4.10;71.50;;;;;;4898358;29;20084;-79
2021/04/16 04:47:54;;;;;;;7.63;4.13;;;4.10;71.60;;;;;;4896994;29;20406;-79
2021/04/16 04:50:21;;;;;;;5.13;3.83;;;4.10;71.70;;;;;;4898188;29;20029;-79
2021/04/16 04:52:47;;;;;;;6.25;3.97;;;4.00;71.80;;;;;;4912928;29;20032;-79
2021/04/16 04:55:20;;;;;;;4.50;3.47;;;4.10;71.90;;;;;;4907895;29;20084;-79
2021/04/16 04:57:46;;;;;;;6.03;3.80;;;4.10;71.90;;;;;;4904165;29;20135;-79
2021/04/16 05:00:14;;;;;;;5.10;3.92;;;4.10;71.80;;;;;;4916310;29;20055;-79
2021/04/16 05:02:40;;;;;;;6.07;3.67;;;4.10;71.80;;;;;;4908609;29;20028;-80
2021/04/16 05:05:06;;;;;;;4.65;3.35;;;4.10;71.90;;;;;;4914438;29;20035;-79
2021/04/16 05:07:32;;;;;;;5.18;3.50;;;4.10;71.80;;;;;;4896816;29;20414;-79
2021/04/16 05:09:58;;;;;;;8.50;4.28;;;4.10;71.90;;;;;;4896966;29;20032;-79
2021/04/16 05:12:23;;;;;;;7.85;3.88;;;4.10;72.00;;;;;;4897907;29;20039;-79
2021/04/16 05:14:49;;;;;;;5.90;3.70;;;4.10;72.30;;;;;;4896960;29;20478;-79
2021/04/16 05:17:15;;;;;;;6.30;3.70;;;4.10;72.50;;;;;;4897816;29;20063;-79
2021/04/16 05:19:40;;;;;;;4.32;2.95;;;4.00;72.30;;;;;;4897965;29;20036;-79
2021/04/16 05:22:07;;;;;;;5.82;3.22;;;4.10;72.20;;;;;;4897821;29;20036;-79
2021/04/16 05:24:33;;;;;;;4.80;3.03;;;4.10;72.30;;;;;;4911047;29;20121;-78
2021/04/16 05:27:05;;;;;;;4.00;2.72;;;4.10;72.20;;;;;;4898285;29;20044;-79
2021/04/16 05:29:31;;;;;;;11.60;3.83;;;4.10;72.30;;;;;;4896737;29;20028;-79
2021/04/16 05:31:57;;;;;;;4.32;2.85;;;4.10;72.40;;;;;;4908651;29;20430;-79
2021/04/16 05:34:23;;;;;;;3.80;3.20;;;4.10;72.30;;;;;;4897807;29;20108;-79
2021/04/16 05:36:48;;;;;;;5.30;3.45;;;4.20;72.40;;;;;;4900632;29;20067;-79
2021/04/16 05:39:15;;;;;;;6.10;3.50;;;4.20;72.40;;;;;;4916516;29;20431;-79
2021/04/16 05:41:41;;;;;;;4.90;3.38;;;4.10;72.40;;;;;;4899365;29;20490;-79
2021/04/16 05:44:07;;;;;;;8.07;3.80;;;4.20;72.60;;;;;;4910559;29;20156;-79
2021/04/16 05:46:33;;;;;;;5.55;3.47;;;4.20;72.70;;;;;;4897058;29;20115;-79
2021/04/16 05:48:59;;;;;;;6.38;3.95;;;4.20;72.80;;;;;;4902304;29;20036;-80
2021/04/16 05:51:24;;;;;;;5.28;3.45;;;4.20;73.00;;;;;;4898115;29;20036;-80
2021/04/16 05:53:50;;;;;;;5.75;3.63;;;4.20;73.10;;;;;;4896659;29;20039;-81
2021/04/16 05:56:15;;;;;;;5.38;3.47;;;4.20;73.00;;;;;;4901073;29;20045;-81
2021/04/16 05:58:41;;;;;;;8.38;3.83;;;4.30;73.10;;;;;;4915500;29;20508;-80
2021/04/16 06:01:07;;;;;;;6.47;3.47;;;4.30;73.10;;;;;;4906211;29;20024;-81
2021/04/16 06:03:33;;;;;;;5.72;3.90;;;4.30;73.20;;;;;;4915377;29;20040;-80
2021/04/16 06:05:59;;;;;;;8.10;3.60;;;4.30;73.30;;;;;;4900725;29;20447;-80
2021/04/16 06:08:26;;;;;;;6.22;3.80;;;4.30;74.10;;;;;;4881043;29;20079;-79
2021/04/16 06:10:52;;;;;;;6.60;3.53;;;4.40;73.50;;;;;;4907788;29;20079;-78
2021/04/16 06:13:18;;;;;;;5.60;3.38;;;4.40;73.40;;;;;;4918942;29;20028;-78
2021/04/16 06:15:44;;;;;;;5.53;3.00;;;4.40;73.50;;;;;;4889584;29;20044;-79
2021/04/16 06:18:09;;;;;;;11.05;3.35;;;4.50;73.50;;;;;;4910300;29;20032;-78
2021/04/16 06:20:35;;;;;;;6.28;3.80;;;4.50;73.40;;;;;;4906427;29;20032;-78
2021/04/16 06:23:01;;;;;;;5.60;3.35;;;4.60;73.40;;;;;;4899747;29;20040;-78
2021/04/16 06:25:34;;;;;;;5.15;3.17;;;4.60;73.40;;;;;;4884153;29;20037;-79
2021/04/16 06:28:01;;;;;;;5.80;3.53;;;4.70;73.30;;;;;;4899650;29;20040;-78
2021/04/16 06:30:28;;;;;;;6.53;3.72;;;4.70;73.40;;;;;;4899616;29;20033;-78
2021/04/16 06:33:06;;;;;;;4.90;3.17;;;4.70;73.30;;;;;;4883818;29;20029;-78
2021/04/16 06:35:33;;;;;;;6.32;3.33;;;4.80;73.40;;;;;;4907580;29;20482;-78
2021/04/16 06:37:59;;;;;;;10.07;3.75;;;4.80;73.40;;;;;;4917809;29;20032;-78
2021/04/16 06:40:27;;;;;;;8.18;3.65;;;4.90;73.50;;;;;;4917181;29;20062;-78
2021/04/16 06:42:53;;;;;;;8.82;4.10;;;4.90;73.50;;;;;;4884091;29;20039;-78
2021/04/16 06:45:24;;;;;;;5.18;3.53;;;5.00;73.30;;;;;;4902827;29;20028;-77
2021/04/16 06:47:55;;;;;;;8.40;4.05;;;5.20;73.10;;;;;;4919345;29;20382;-79
2021/04/16 06:50:24;;;;;;;8.32;4.15;;;5.30;72.90;;;;;;4910032;29;20545;-79
2021/04/16 06:53:00;;;;;;;4.10;3.70;;;5.30;72.90;;;;;;4894454;29;20064;-79
2021/04/16 06:55:55;;;;;;;7.07;3.88;;;5.20;73.00;;;;;;4900473;29;20089;-79
2021/04/16 06:58:33;;;;;;;9.57;3.85;;;5.30;73.10;;;;;;4887996;29;20100;-79
2021/04/16 07:01:23;;;;;;;7.35;3.83;;;5.40;73.10;;;;;;4900382;29;20414;-79
2021/04/16 07:04:01;;;;;;;5.88;3.60;;;5.50;72.90;;;;;;4900052;29;20032;-79
2021/04/16 07:06:32;;;;;;;8.37;4.43;;;5.60;72.60;;;;;;4916783;29;20072;-79
2021/04/16 07:09:04;;;;;;;8.35;3.55;;;5.80;72.30;;;;;;4880809;29;20668;-80
2021/04/16 07:11:31;;;;;;;8.43;3.97;;;5.90;72.00;;;;;;4881207;29;20032;-80
2021/04/16 07:14:02;;;;;;;4.95;3.53;;;6.00;71.70;;;;;;4881084;29;20025;-79
2021/04/16 07:16:31;;;;;;;6.45;3.80;;;6.20;71.30;;;;;;4898744;29;20028;-79
2021/04/16 07:19:00;;;;;;;5.22;3.50;;;6.20;71.10;;;;;;4899760;29;20107;-80
2021/04/16 07:21:26;;;;;;;6.43;3.38;;;6.40;71.00;;;;;;4899894;29;20051;-79
2021/04/16 07:24:00;;;;;;;6.97;3.72;;;6.50;70.60;;;;;;4914447;29;20040;-80
2021/04/16 07:26:32;;;;;;;6.70;4.05;;;6.60;70.90;;;;;;4917067;29;20525;-79
2021/04/16 07:28:58;;;;;;;5.82;4.00;;;6.60;70.20;;;;;;4907457;29;20029;-80
2021/04/16 07:31:33;;;;;;;5.90;3.90;;;6.60;70.20;;;;;;4886812;29;20032;-80
2021/04/16 07:34:01;;;;;;;8.57;3.60;;;6.70;70.00;;;;;;4906013;29;20017;-80
2021/04/16 07:36:35;;;;;;;6.72;3.75;;;6.70;69.60;;;;;;4898336;29;20035;-80
2021/04/16 07:39:13;;;;;;;8.05;3.70;;;6.80;69.60;;;;;;4915233;29;20035;-79
2021/04/16 07:41:43;;;;;;;6.65;4.03;;;7.00;69.60;;;;;;4916975;29;20024;-80
2021/04/16 07:44:21;;;;;;;6.72;3.33;;;7.20;69.30;;;;;;4899465;29;20036;-80
2021/04/16 07:46:51;;;;;;;6.68;3.78;;;7.30;68.80;;;;;;4897725;29;20033;-80
2021/04/16 07:49:27;;;;;;;7.35;3.83;;;7.50;68.40;;;;;;4899502;29;20115;-80
2021/04/16 07:51:57;;;;;;;5.65;3.55;;;7.50;68.10;;;;;;4899243;29;20387;-80
2021/04/16 07:54:25;;;;;;;5.28;3.65;;;7.50;68.10;;;;;;4897787;29;20037;-80
2021/04/16 07:57:18;;;;;;;6.45;4.13;;;7.60;68.00;;;;;;4899292;29;20032;-80
2021/04/16 07:59:59;;;;;;;7.43;4.32;;;7.80;67.80;;;;;;4880728;29;20061;-80
2021/04/16 08:02:38;;;;;;;6.82;4.10;;;8.00;67.40;;;;;;4880860;29;20029;-80
2021/04/16 08:05:36;;;;;;;6.28;3.92;;;8.10;66.90;;;;;;4900146;29;20111;-80
2021/04/16 08:08:25;;;;;;;5.45;3.58;;;8.30;66.60;;;;;;4898260;29;20080;-80
2021/04/16 08:11:09;;;;;;;6.07;3.90;;;8.40;66.10;;;;;;4900236;29;20032;-80
2021/04/16 08:14:00;;;;;;;9.05;3.92;;;8.50;65.40;;;;;;4894103;29;20088;-80
2021/04/16 08:16:34;;;;;;;5.70;3.65;;;8.70;65.40;;;;;;4912760;29;20031;-80
2021/04/16 08:19:22;;;;;;;7.38;3.85;;;8.90;64.70;;;;;;4899003;29;20017;-80
2021/04/16 08:21:54;;;;;;;6.57;3.83;;;9.00;64.00;;;;;;4880402;29;20036;-80
2021/04/16 08:24:45;;;;;;;9.35;4.70;;;9.00;63.60;;;;;;4880429;29;20490;-80
2021/04/16 08:27:27;;;;;;;7.10;4.30;;;9.10;63.30;;;;;;4909449;29;20094;-77
2021/04/16 08:30:08;;;;;;;7.70;4.32;;;9.30;62.30;;;;;;4900381;29;20048;-76
2021/04/16 08:33:03;;;;;;;7.57;4.70;;;9.50;62.00;;;;;;4900039;29;20242;-77
2021/04/16 08:35:51;;;;;;;6.85;4.05;;;9.70;61.10;;;;;;4897282;29;20028;-76
2021/04/16 08:38:20;;;;;;;7.78;3.97;;;9.90;61.50;;;;;;4898598;29;20020;-74
2021/04/16 08:40:49;;;;;;;8.75;3.88;;;10.10;59.90;;;;;;4897349;29;20552;-73
2021/04/16 08:43:29;;;;;;;;;;;10.10;58.40;;;;;;4913690;29;20533;-72
2021/04/16 08:45:57;;;;;;;9.45;5.05;;;10.10;58.00;;;;;;4902191;29;20369;-73
2021/04/16 08:48:37;;;;;;;6.93;4.25;;;10.30;58.40;;;;;;4897007;29;20486;-72
2021/04/16 08:51:07;;;;;;;6.13;3.85;;;10.40;57.10;;;;;;4897879;29;20029;-73
2021/04/16 08:53:33;;;;;;;5.85;4.20;;;10.50;57.00;;;;;;4904855;29;20491;-73
2021/04/16 08:56:12;;;;;;;8.63;4.28;;;10.70;57.20;;;;;;4897607;29;20037;-74
2021/04/16 08:58:39;;;;;;;5.50;3.40;;;10.80;56.40;;;;;;4896995;29;20036;-74
2021/04/16 09:01:07;;;;;;;5.78;3.83;;;11.00;56.70;;;;;;4896225;29;20043;-74
2021/04/16 09:03:47;;;;;;;7.07;3.50;;;11.10;54.00;;;;;;4897975;29;20084;-74
2021/04/16 09:06:31;;;;;;;6.10;4.15;;;11.30;54.30;;;;;;4897146;29;20096;-74
2021/04/16 09:08:59;;;;;;;5.28;3.33;;;11.40;52.90;;;;;;4896194;29;20382;-74
2021/04/16 09:11:43;;;;;;;5.70;3.10;;;11.40;53.50;;;;;;4896254;29;20135;-74
2021/04/16 09:14:15;;;;;;;4.97;3.38;;;11.60;53.10;;;;;;4910971;29;20031;-74
2021/04/16 09:16:59;;;;;;;4.45;2.83;;;11.70;52.50;;;;;;4896947;29;20056;-74
2021/04/16 09:19:25;;;;;;;7.25;3.75;;;11.70;51.20;;;;;;4888674;29;20029;-74
2021/04/16 09:22:06;;;;;;;5.40;2.67;;;11.80;51.10;;;;;;4896570;29;20040;-74
2021/04/16 09:24:47;;;;;;;5.05;2.90;;;11.90;51.20;;;;;;4913437;29;20397;-73
2021/04/16 09:27:25;;;;;;;3.78;2.60;;;11.90;49.40;;;;;;4902146;29;20028;-73
2021/04/16 09:30:03;;;;;;;6.38;3.40;;;11.90;49.30;;;;;;4903314;29;20039;-73
2021/04/16 09:32:30;;;;;;;8.00;2.88;;;12.00;49.00;;;;;;4911269;29;20036;-74
2021/04/16 09:34:56;;;;;;;4.93;2.75;;;12.10;49.70;;;;;;4899166;29;20064;-74
2021/04/16 09:37:26;;;;;;;4.75;2.67;;;12.20;48.10;;;;;;4903287;29;20060;-74
2021/04/16 09:40:15;;;;;;;5.90;2.65;;;12.20;47.80;;;;;;4910587;29;20025;-74
2021/04/16 09:42:42;;;;;;;5.20;2.67;;;12.40;47.40;;;;;;4891664;29;20051;-74
2021/04/16 09:45:34;;;;;;;4.75;2.60;;;12.40;47.00;;;;;;4899487;29;20371;-74
2021/04/16 09:48:05;;;;;;;3.63;2.58;;;12.50;46.40;;;;;;4900351;29;21599;-73
2021/04/16 09:50:42;;;;;;;2.67;2.10;;;12.50;46.30;;;;;;4901292;29;20095;-74
2021/04/16 09:53:20;;;;;;;3.72;2.30;;;12.70;46.60;;;;;;4899643;29;20044;-73
2021/04/16 09:56:09;;;;;;;4.03;2.10;;;12.80;46.80;;;;;;4911831;29;20017;-74
2021/04/16 09:58:35;;;;;;;5.53;2.20;;;13.00;45.60;;;;;;4899652;29;20138;-73
2021/04/16 10:01:11;;;;;;;2.17;1.90;;;13.10;44.60;;;;;;4913406;29;20019;-73
2021/04/16 10:03:52;;;;;;;2.88;1.90;;;13.20;45.20;;;;;;4918653;29;20107;-73
2021/04/16 10:06:31;;;;;;;2.63;1.58;;;13.30;45.00;;;;;;4909156;29;20052;-74
2021/04/16 10:09:04;;;;;;;3.10;2.00;;;13.50;44.20;;;;;;4916753;29;20044;-73
2021/04/16 10:11:30;;;;;;;4.20;2.00;;;13.50;43.10;;;;;;4919371;29;20115;-74
2021/04/16 10:14:13;;;;;;;5.75;1.90;;;13.40;43.00;;;;;;4912843;29;20025;-74
2021/04/16 10:16:39;;;;;;;4.03;1.92;;;13.40;43.40;;;;;;4903197;29;20028;-73
2021/04/16 10:19:14;;;;;;;2.88;1.60;;;13.40;42.20;;;;;;4909303;29;20036;-74
2021/04/16 10:21:41;;;;;;;1.95;1.40;;;13.30;42.20;;;;;;4898648;29;20044;-74
2021/04/16 12:39:12;;;;;;;10.65;2.35;;;16.60;35.30;;;;;;4850258;29;20095;-73
2021/04/16 12:41:44;;;;;;;8.23;1.65;;;16.80;35.50;;;;;;4858461;29;20033;-73
2021/04/16 12:44:40;;;;;;;3.88;1.48;;;16.90;34.60;;;;;;4896541;29;20474;-73
2021/04/16 12:47:23;;;;;;;1.52;1.05;;;16.80;32.60;;;;;;4897666;29;20037;-73
2021/04/16 12:49:49;;;;;;;1.90;1.58;;;16.40;33.20;;;;;;4913104;29;20028;-73
2021/04/16 12:52:17;;;;;;;6.85;1.50;;;16.10;33.30;;;;;;4916664;29;20390;-73
2021/04/16 12:54:48;;;;;;;2.60;1.50;;;15.90;33.60;;;;;;4916766;29;20354;-73
2021/04/16 12:57:40;;;;;;;4.78;1.35;;;15.90;33.60;;;;;;4900245;29;20078;-73
2021/04/16 13:00:17;;;;;;;6.32;2.13;;;16.00;33.90;;;;;;4893377;29;20125;-73
2021/04/16 13:02:43;;;;;;;3.90;1.50;;;15.90;34.50;;;;;;4896271;29;20120;-73
2021/04/16 13:05:16;;;;;;;1.73;1.25;;;15.90;33.60;;;;;;4903549;29;20519;-73
2021/04/16 13:07:42;;;;;;;1.45;1.13;;;15.90;34.80;;;;;;4885568;29;20446;-73
2021/04/16 13:10:14;;;;;;;9.90;1.80;;;16.00;35.10;;;;;;4880638;29;20490;-73
2021/04/16 13:12:40;;;;;;;5.10;1.90;;;16.10;34.60;;;;;;4896220;29;20056;-73
2021/04/16 13:15:07;;;;;;;4.63;1.90;;;16.10;34.80;;;;;;4896378;29;20025;-73
2021/04/16 13:17:33;;;;;;;3.50;1.67;;;16.10;35.00;;;;;;4896715;29;20077;-73
2021/04/16 13:19:59;;;;;;;2.50;1.75;;;16.00;35.30;;;;;;4896438;29;20032;-73
2021/04/16 13:22:27;;;;;;;2.15;1.55;;;15.90;35.30;;;;;;4900287;29;20029;-73
2021/04/16 13:24:54;;;;;;;8.10;1.73;;;15.60;35.70;;;;;;4904104;29;20036;-73
2021/04/16 13:27:27;;;;;;;2.80;1.38;;;15.30;36.10;;;;;;4908276;29;20119;-73
2021/04/16 13:29:53;;;;;;;8.18;2.13;;;15.20;36.60;;;;;;4922360;29;20032;-73
2021/04/16 13:32:22;;;;;;;2.63;1.70;;;15.30;36.40;;;;;;4920953;29;20103;-73
2021/04/16 13:34:49;;;;;;;;;;;15.50;36.60;;;;;;4920726;29;20042;-73
2021/04/16 13:37:20;;;;;;;3.13;1.67;;;15.90;36.10;;;;;;4918666;29;19918;-73
2021/04/16 13:39:47;;;;;;;2.97;1.73;;;16.20;36.00;;;;;;4882550;29;20074;-73
2021/04/16 13:42:14;;;;;;;2.03;1.40;;;16.30;34.40;;;;;;4882539;29;20031;-73
2021/04/16 13:44:40;;;;;;;4.03;1.35;;;16.10;34.00;;;;;;4881122;29;20399;-73
2021/04/16 13:47:07;;;;;;;1.85;1.35;;;15.60;34.20;;;;;;4865641;29;20033;-73
2021/04/16 13:49:36;;;;;;;2.75;1.73;;;15.20;35.10;;;;;;4917742;29;20116;-73
2021/04/16 13:52:02;;;;;;;2.20;1.25;;;15.00;35.60;;;;;;4918586;29;20028;-73
2021/04/16 13:54:28;;;;;;;3.13;1.40;;;14.90;35.80;;;;;;4919643;29;20142;-73
2021/04/16 13:56:54;;;;;;;5.07;1.83;;;15.00;35.50;;;;;;4918379;29;20553;-73
2021/04/16 13:59:20;;;;;;;2.47;1.50;;;15.20;35.70;;;;;;4903685;29;20121;-72
2021/04/16 14:01:46;;;;;;;2.58;1.60;;;15.30;35.50;;;;;;4899563;29;20107;-73
2021/04/16 14:04:23;;;;;;;2.30;1.55;;;15.30;35.70;;;;;;4909865;29;20111;-73
2021/04/16 14:06:50;;;;;;;7.03;1.55;;;15.20;35.80;;;;;;4900931;29;20108;-73
2021/04/16 14:09:20;;;;;;;1.65;1.30;;;15.10;35.90;;;;;;4900416;29;20036;-73
2021/04/16 14:11:46;;;;;;;1.52;1.30;;;15.30;35.80;;;;;;4899295;29;20059;-73
2021/04/16 14:14:19;;;;;;;3.83;1.55;;;15.50;35.50;;;;;;4911376;29;20060;-73
2021/04/16 14:16:48;;;;;;;4.78;1.63;;;15.90;35.10;;;;;;4919427;29;20024;-73
2021/04/16 14:19:21;;;;;;;2.58;1.50;;;16.10;35.30;;;;;;4918257;29;20032;-73
2021/04/16 14:21:51;;;;;;;2.70;1.50;;;16.30;35.00;;;;;;4918019;29;20032;-73
2021/04/16 14:24:18;;;;;;;4.05;1.83;;;16.60;34.30;;;;;;4906460;29;20131;-73
2021/04/16 14:26:46;;;;;;;3.67;1.42;;;16.60;33.70;;;;;;4900549;29;20029;-73
2021/04/16 14:29:12;;;;;;;2.13;1.37;;;16.30;32.90;;;;;;4900563;29;20059;-73
2021/04/16 14:31:39;;;;;;;1.77;1.30;;;16.00;33.60;;;;;;4912243;29;20304;-73
2021/04/16 14:34:05;;;;;;;2.05;1.52;;;15.70;34.20;;;;;;4919068;29;20482;-74
2021/04/16 14:36:32;;;;;;;2.03;1.48;;;15.60;34.70;;;;;;4918033;29;20146;-73
2021/04/16 14:38:57;;;;;;;2.53;1.15;;;15.60;34.00;;;;;;4917868;29;20028;-73
2021/04/16 14:41:27;;;;;;;1.45;1.10;;;15.60;33.20;;;;;;4890200;29;20043;-73
2021/04/16 14:43:53;;;;;;;2.95;1.30;;;15.60;34.00;;;;;;4900079;29;20021;-73
2021/04/16 14:46:19;;;;;;;1.55;1.27;;;15.50;33.50;;;;;;4899916;29;20533;-73
2021/04/16 14:48:45;;;;;;;1.73;1.23;;;15.50;33.70;;;;;;4900001;29;20025;-73
2021/04/16 14:51:10;;;;;;;1.70;1.10;;;15.40;33.80;;;;;;4892597;29;20505;-73
2021/04/16 14:53:36;;;;;;;2.25;1.40;;;15.30;33.90;;;;;;4917669;29;20382;-73
2021/04/16 14:56:04;;;;;;;2.38;1.05;;;15.30;33.90;;;;;;4918691;29;20031;-73
2021/04/16 14:58:37;;;;;;;2.00;1.23;;;15.30;33.80;;;;;;4917288;29;20102;-72
2021/04/16 15:01:03;;;;;;;2.72;1.10;;;15.30;34.10;;;;;;4898513;29;20128;-73
2021/04/16 15:03:31;;;;;;;2.97;1.30;;;15.40;34.50;;;;;;4898579;29;20111;-73
2021/04/16 15:05:57;;;;;;;29.10;2.30;;;15.50;34.10;;;;;;4899598;29;20084;-73
2021/04/16 15:08:33;;;;;;;1.77;1.20;;;15.40;34.20;;;;;;4899238;29;20057;-73
2021/04/16 15:11:04;;;;;;;3.47;1.30;;;15.20;33.70;;;;;;4890960;29;20028;-73
2021/04/16 15:13:32;;;;;;;1.88;1.08;;;15.10;34.30;;;;;;4916893;29;20016;-73
2021/04/16 15:16:02;;;;;;;5.30;1.50;;;15.20;34.70;;;;;;4916736;29;20039;-73
2021/04/16 15:18:30;;;;;;;3.63;1.40;;;15.20;34.40;;;;;;4917057;29;20408;-73
2021/04/16 15:20:58;;;;;;;2.47;1.70;;;15.30;34.90;;;;;;4917128;29;20024;-73
2021/04/16 15:23:24;;;;;;;2.60;1.55;;;15.50;35.00;;;;;;4918356;29;20024;-73